createdAt,value
2019-02-19T00:01:02.733Z,24.67
2019-02-19T00:03:35.252Z,23.47
2019-02-19T00:06:07.570Z,22.40
2019-02-19T00:08:40.148Z,22.43
2019-02-19T00:11:12.417Z,21.20
2019-02-19T00:13:44.817Z,24.37
2019-02-19T00:16:17.301Z,24.77
2019-02-19T00:18:50.027Z,25.67
2019-02-19T00:21:22.625Z,19.77
2019-02-19T00:23:54.917Z,20.67
2019-02-19T00:26:27.341Z,26.67
2019-02-19T00:28:59.601Z,24.27
2019-02-19T00:31:31.765Z,25.13
2019-02-19T00:34:04.237Z,24.27
2019-02-19T00:36:36.557Z,22.67
2019-02-19T00:39:08.845Z,24.30
2019-02-19T00:41:42.430Z,24.13
2019-02-19T00:44:14.926Z,24.23
2019-02-19T00:46:47.131Z,25.60
2019-02-19T00:49:19.483Z,21.93
2019-02-19T00:51:51.677Z,25.40
2019-02-19T00:54:24.181Z,21.67
2019-02-19T00:56:56.389Z,20.53
2019-02-19T00:59:28.642Z,20.10
2019-02-19T01:02:01.373Z,20.40
2019-02-19T01:04:33.684Z,22.70
2019-02-19T01:07:06.269Z,23.03
2019-02-19T01:09:38.742Z,24.30
2019-02-19T01:12:11.127Z,23.83
2019-02-19T01:14:43.520Z,20.47
2019-02-19T01:17:15.896Z,20.93
2019-02-19T01:19:48.529Z,25.10
2019-02-19T01:22:21.327Z,24.03
2019-02-19T01:24:53.609Z,22.77
2019-02-19T01:27:25.965Z,24.23
2019-02-19T01:29:58.323Z,22.70
2019-02-19T01:32:31.172Z,25.87
2019-02-19T01:35:04.068Z,23.77
2019-02-19T01:37:36.358Z,24.63
2019-02-19T01:40:08.952Z,22.57
2019-02-19T01:42:42.563Z,21.47
2019-02-19T01:45:14.997Z,23.77
2019-02-19T01:47:47.409Z,23.97
2019-02-19T01:50:19.726Z,22.63
2019-02-19T01:52:52.028Z,24.67
2019-02-19T01:55:24.570Z,22.60
2019-02-19T01:57:56.889Z,21.87
2019-02-19T02:00:29.214Z,21.47
2019-02-19T02:03:01.413Z,22.10
2019-02-19T02:05:33.647Z,23.03
2019-02-19T02:08:05.833Z,21.73
2019-02-19T02:10:38.034Z,19.83
2019-02-19T02:13:10.467Z,25.50
2019-02-19T02:15:42.985Z,22.00
2019-02-19T02:18:15.251Z,18.23
2019-02-19T02:20:47.607Z,21.63
2019-02-19T02:23:19.793Z,23.00
2019-02-19T02:25:52.068Z,20.17
2019-02-19T02:28:24.369Z,18.63
2019-02-19T02:30:56.705Z,19.23
2019-02-19T02:33:28.811Z,18.93
2019-02-19T02:36:01.153Z,24.87
2019-02-19T02:38:33.281Z,21.10
2019-02-19T02:41:05.529Z,17.97
2019-02-19T02:43:37.758Z,22.10
2019-02-19T02:46:10.164Z,21.23
2019-02-19T02:48:42.645Z,17.53
2019-02-19T02:51:15.091Z,20.73
2019-02-19T02:53:47.192Z,20.83
2019-02-19T02:56:19.323Z,18.53
2019-02-19T02:58:51.569Z,20.87
2019-02-19T03:01:23.836Z,19.27
2019-02-19T03:03:56.055Z,20.27
2019-02-19T03:06:37.420Z,18.87
2019-02-19T03:09:09.865Z,20.33
2019-02-19T03:11:42.583Z,19.03
2019-02-19T03:14:14.768Z,20.27
2019-02-19T03:16:47.367Z,18.03
2019-02-19T03:19:19.962Z,22.17
2019-02-19T03:21:52.178Z,20.77
2019-02-19T03:24:24.413Z,17.93
2019-02-19T03:26:56.536Z,20.77
2019-02-19T03:29:28.811Z,18.00
2019-02-19T03:32:01.294Z,18.73
2019-02-19T03:34:33.474Z,19.20
2019-02-19T03:37:05.753Z,19.00
2019-02-19T03:39:37.997Z,20.60
2019-02-19T03:42:10.422Z,19.43
2019-02-19T03:44:42.676Z,16.50
2019-02-19T03:47:14.973Z,17.93
2019-02-19T03:49:47.186Z,22.63
2019-02-19T03:52:19.480Z,20.07
2019-02-19T03:54:51.894Z,19.27
2019-02-19T03:57:24.248Z,19.70
2019-02-19T03:59:56.720Z,18.23
2019-02-19T04:02:29.003Z,17.97
2019-02-19T04:05:01.328Z,18.90
2019-02-19T04:07:33.521Z,16.67
2019-02-19T04:10:06.060Z,16.97
2019-02-19T04:12:38.140Z,17.63
2019-02-19T04:15:10.597Z,17.20
2019-02-19T04:17:42.888Z,19.80
2019-02-19T04:20:15.047Z,19.00
2019-02-19T04:22:47.359Z,18.27
2019-02-19T04:25:19.694Z,18.90
2019-02-19T04:27:51.812Z,20.53
2019-02-19T04:30:24.124Z,16.70
2019-02-19T04:32:56.508Z,20.23
2019-02-19T04:35:28.707Z,20.33
2019-02-19T04:38:01.043Z,19.83
2019-02-19T04:40:33.476Z,18.23
2019-02-19T04:43:05.569Z,18.13
2019-02-19T04:45:37.929Z,19.33
2019-02-19T04:48:10.023Z,18.17
2019-02-19T04:50:42.402Z,18.17
2019-02-19T04:53:14.844Z,18.67
2019-02-19T04:55:47.107Z,21.37
2019-02-19T04:58:19.282Z,18.80
2019-02-19T05:00:52.070Z,18.10
2019-02-19T05:03:24.288Z,19.80
2019-02-19T05:05:56.964Z,19.00
2019-02-19T05:08:29.271Z,17.97
2019-02-19T05:11:01.702Z,22.27
2019-02-19T05:13:34.110Z,19.60
2019-02-19T05:16:06.207Z,21.07
2019-02-19T05:18:39.218Z,19.93
2019-02-19T05:21:11.360Z,19.20
2019-02-19T05:23:43.546Z,19.80
2019-02-19T05:26:15.847Z,19.67
2019-02-19T05:28:48.361Z,17.40
2019-02-19T05:31:20.968Z,16.53
2019-02-19T05:33:53.414Z,19.37
2019-02-19T05:36:25.783Z,20.33
2019-02-19T05:38:57.894Z,24.00
2019-02-19T05:41:30.645Z,18.43
2019-02-19T05:44:03.019Z,16.77
2019-02-19T05:46:35.616Z,19.33
2019-02-19T05:49:07.999Z,20.17
2019-02-19T05:51:40.155Z,19.53
2019-02-19T05:54:12.624Z,17.93
2019-02-19T05:56:45.065Z,17.30
2019-02-19T05:59:17.373Z,19.80
2019-02-19T06:01:49.731Z,18.97
2019-02-19T06:04:21.930Z,18.03
2019-02-19T06:06:54.170Z,16.93
2019-02-19T06:09:26.340Z,21.20
2019-02-19T06:11:58.847Z,18.83
2019-02-19T06:14:31.184Z,17.90
2019-02-19T06:17:03.758Z,20.33
2019-02-19T06:19:36.464Z,22.07
2019-02-19T06:22:08.562Z,18.67
2019-02-19T06:24:40.923Z,20.63
2019-02-19T06:27:13.450Z,22.03
2019-02-19T06:29:46.047Z,21.37
2019-02-19T06:32:18.256Z,17.07
2019-02-19T06:34:50.558Z,23.40
2019-02-19T06:37:23.251Z,22.77
2019-02-19T06:39:55.554Z,18.47
2019-02-19T06:42:27.912Z,21.23
2019-02-19T06:45:00.412Z,20.17
2019-02-19T06:47:32.704Z,20.17
2019-02-19T06:50:05.132Z,18.23
2019-02-19T06:52:37.226Z,23.97
2019-02-19T06:55:09.573Z,22.73
2019-02-19T06:57:41.775Z,22.10
2019-02-19T07:00:14.443Z,20.40
2019-02-19T07:03:21.729Z,20.90
2019-02-19T07:05:54.198Z,22.83
2019-02-19T07:08:26.396Z,21.10
2019-02-19T07:10:59.199Z,18.13
2019-02-19T07:13:31.724Z,24.43
2019-02-19T07:16:04.052Z,19.17
2019-02-19T07:18:36.572Z,20.17
2019-02-19T07:21:09.883Z,17.07
2019-02-19T07:23:42.069Z,16.03
2019-02-19T07:26:14.566Z,17.27
2019-02-19T07:28:46.926Z,19.33
2019-02-19T07:31:19.145Z,18.97
2019-02-19T07:33:51.469Z,18.90
2019-02-19T07:36:23.800Z,17.90
2019-02-19T07:38:56.651Z,16.33
2019-02-19T07:41:28.924Z,17.03
2019-02-19T07:44:01.149Z,17.03
2019-02-19T07:46:33.406Z,15.23
2019-02-19T07:49:06.013Z,15.63
2019-02-19T07:51:38.323Z,16.17
2019-02-19T07:54:10.681Z,18.30
2019-02-19T07:56:42.989Z,14.33
2019-02-19T07:59:15.084Z,18.53
2019-02-19T08:01:47.257Z,14.53
2019-02-19T08:04:19.339Z,17.23
2019-02-19T08:06:51.875Z,17.27
2019-02-19T08:09:24.622Z,18.93
2019-02-19T08:11:56.965Z,17.00
2019-02-19T08:14:29.586Z,15.87
2019-02-19T08:17:01.839Z,15.23
2019-02-19T08:19:34.423Z,15.03
2019-02-19T08:22:07.371Z,16.47
2019-02-19T08:24:39.573Z,15.63
2019-02-19T08:27:11.981Z,15.70
2019-02-19T08:29:44.281Z,21.00
2019-02-19T08:32:16.432Z,18.10
2019-02-19T08:34:48.872Z,16.13
2019-02-19T08:37:21.348Z,15.07
2019-02-19T08:39:53.500Z,18.40
2019-02-19T08:42:30.021Z,17.87
2019-02-19T08:45:02.522Z,15.73
2019-02-19T08:47:42.287Z,19.50
2019-02-19T08:50:09.369Z,15.93
2019-02-19T08:52:41.524Z,19.10
2019-02-19T08:55:14.054Z,16.27
2019-02-19T08:57:46.502Z,19.87
2019-02-19T09:00:18.754Z,16.17
2019-02-19T09:02:51.087Z,20.67
2019-02-19T09:05:23.369Z,17.90
2019-02-19T09:07:55.873Z,17.83
2019-02-19T09:10:28.237Z,18.27
2019-02-19T09:13:01.130Z,19.33
2019-02-19T09:15:34.021Z,17.13
2019-02-19T09:18:06.481Z,18.87
2019-02-19T09:20:38.953Z,19.20
2019-02-19T09:23:11.521Z,20.33
2019-02-19T09:25:44.209Z,19.30
2019-02-19T09:28:16.471Z,18.50
2019-02-19T09:30:48.847Z,22.43
2019-02-19T09:33:21.520Z,23.37
2019-02-19T09:35:53.898Z,21.80
2019-02-19T09:38:26.162Z,23.03
2019-02-19T09:40:58.452Z,22.20
2019-02-19T09:43:35.425Z,23.53
2019-02-19T09:46:04.967Z,26.00
2019-02-19T09:48:37.205Z,24.83
2019-02-19T09:51:09.966Z,22.90
2019-02-19T09:53:42.082Z,25.07
2019-02-19T09:56:14.402Z,21.83
2019-02-19T09:58:46.820Z,22.67
2019-02-19T10:01:19.023Z,26.43
2019-02-19T10:03:51.561Z,25.40
2019-02-19T10:06:23.936Z,26.57
2019-02-19T10:08:56.577Z,23.20
2019-02-19T10:11:29.151Z,26.57
2019-02-19T10:14:01.517Z,24.43
2019-02-19T10:16:41.413Z,26.40
2019-02-19T10:19:07.628Z,27.20
2019-02-19T10:21:40.212Z,25.37
2019-02-19T10:24:12.534Z,30.57
2019-02-19T10:26:45.167Z,23.67
2019-02-19T10:29:17.484Z,26.73
2019-02-19T10:31:50.124Z,28.33
2019-02-19T10:34:22.376Z,30.53
2019-02-19T10:36:54.484Z,27.73
2019-02-19T10:39:26.773Z,31.90
2019-02-19T10:41:59.331Z,25.37
2019-02-19T10:44:31.743Z,20.17
2019-02-19T10:47:04.005Z,24.43
2019-02-19T10:49:36.662Z,25.47
2019-02-19T10:52:08.938Z,30.93
2019-02-19T10:54:41.842Z,24.90
2019-02-19T10:57:13.993Z,22.97
2019-02-19T10:59:46.253Z,28.73
2019-02-19T11:02:19.009Z,27.20
2019-02-19T11:04:51.676Z,24.70
2019-02-19T11:07:24.456Z,24.30
2019-02-19T11:09:56.876Z,20.90
2019-02-19T11:12:28.996Z,22.50
2019-02-19T11:15:01.230Z,23.70
2019-02-19T11:17:33.793Z,25.90
2019-02-19T11:20:07.900Z,22.60
2019-02-19T11:22:40.522Z,22.17
2019-02-19T11:25:13.205Z,24.40
2019-02-19T11:27:45.695Z,24.17
2019-02-19T11:30:20.116Z,22.17
2019-02-19T11:32:52.057Z,24.93
2019-02-19T11:35:24.573Z,23.70
2019-02-19T11:37:57.138Z,22.70
2019-02-19T11:40:29.584Z,21.07
2019-02-19T11:43:04.830Z,25.57
2019-02-19T11:45:40.470Z,27.57
2019-02-19T11:48:13.107Z,24.00
2019-02-19T11:50:45.249Z,22.63
2019-02-19T11:53:17.628Z,26.53
2019-02-19T11:55:50.041Z,23.63
2019-02-19T11:58:22.658Z,24.70
2019-02-19T12:00:57.365Z,26.70
2019-02-19T12:03:29.490Z,26.40
2019-02-19T12:06:01.716Z,23.87
2019-02-19T12:08:39.044Z,23.43
2019-02-19T12:11:08.375Z,23.90
2019-02-19T12:13:40.590Z,21.93
2019-02-19T12:16:13.358Z,22.20
2019-02-19T12:18:46.506Z,24.23
2019-02-19T12:21:19.045Z,22.53
2019-02-19T12:23:51.366Z,21.33
2019-02-19T12:26:23.768Z,18.97
2019-02-19T12:28:56.333Z,21.17
2019-02-19T12:31:28.634Z,20.20
2019-02-19T12:34:00.878Z,22.83
2019-02-19T12:36:33.106Z,23.20
2019-02-19T12:39:05.445Z,22.13
2019-02-19T12:41:37.936Z,19.63
2019-02-19T12:44:10.526Z,20.63
2019-02-19T12:46:42.903Z,23.53
2019-02-19T12:49:16.499Z,17.53
2019-02-19T12:51:48.899Z,21.13
2019-02-19T12:54:21.204Z,19.80
2019-02-19T12:56:53.405Z,20.83
2019-02-19T12:59:25.651Z,24.20
2019-02-19T13:01:58.666Z,17.50
2019-02-19T13:04:30.875Z,19.93
2019-02-19T13:07:03.318Z,17.57
2019-02-19T13:09:35.441Z,16.57
2019-02-19T13:12:08.289Z,18.40
2019-02-19T13:14:41.315Z,18.87
2019-02-19T13:17:13.575Z,16.17
2019-02-19T13:19:46.131Z,16.90
2019-02-19T13:22:18.534Z,20.87
2019-02-19T13:24:51.083Z,24.53
2019-02-19T13:27:23.762Z,23.57
2019-02-19T13:29:56.039Z,20.93
2019-02-19T13:32:28.832Z,16.37
2019-02-19T13:35:01.226Z,17.23
2019-02-19T13:37:33.553Z,19.23
2019-02-19T13:40:06.962Z,18.33
2019-02-19T13:42:39.445Z,20.07
2019-02-19T13:45:12.921Z,24.23
2019-02-19T13:47:45.260Z,16.33
2019-02-19T13:50:18.656Z,15.87
2019-02-19T13:52:59.881Z,16.53
2019-02-19T13:55:35.825Z,14.33
2019-02-19T13:58:08.210Z,15.80
2019-02-19T14:00:41.217Z,18.23
2019-02-19T14:03:13.727Z,12.80
2019-02-19T14:05:45.932Z,17.00
2019-02-19T14:08:18.232Z,15.37
2019-02-19T14:10:51.018Z,10.33
2019-02-19T14:13:23.680Z,12.87
2019-02-19T14:16:12.324Z,16.70
2019-02-19T14:18:55.449Z,15.27
2019-02-19T14:21:45.939Z,16.13
2019-02-19T14:24:39.572Z,15.67
2019-02-19T14:27:39.596Z,11.97
2019-02-19T14:30:49.799Z,18.13
2019-02-19T14:33:48.796Z,13.53
2019-02-19T14:36:44.881Z,15.00
2019-02-19T14:39:36.841Z,12.70
2019-02-19T14:42:31.945Z,12.70
2019-02-19T14:45:14.610Z,14.50
2019-02-19T14:48:09.713Z,12.97
2019-02-19T14:51:03.834Z,11.90
2019-02-19T14:53:43.566Z,15.43
2019-02-19T14:56:33.884Z,12.67
2019-02-19T14:59:24.299Z,17.83
2019-02-19T15:02:16.447Z,12.67
2019-02-19T15:05:11.134Z,13.77
2019-02-19T15:08:06.024Z,16.47
2019-02-19T15:11:03.676Z,11.97
2019-02-19T15:13:45.837Z,14.23
2019-02-19T15:16:37.739Z,11.50
2019-02-19T15:19:38.710Z,14.13
2019-02-19T15:22:23.959Z,15.00
2019-02-19T15:25:18.218Z,14.67
2019-02-19T15:28:08.712Z,14.23
2019-02-19T15:30:51.417Z,12.20
2019-02-19T15:33:46.101Z,11.80
2019-02-19T15:36:29.350Z,9.97
2019-02-19T15:39:08.694Z,14.23
2019-02-19T15:42:08.602Z,12.67
2019-02-19T15:45:12.818Z,12.33
2019-02-19T15:48:03.149Z,13.43
2019-02-19T15:51:13.132Z,11.27
2019-02-19T15:53:57.477Z,12.10
2019-02-19T15:56:49.780Z,11.20
2019-02-19T15:59:49.021Z,14.50
2019-02-19T16:02:32.944Z,11.37
2019-02-19T16:05:13.172Z,14.37
2019-02-19T16:07:56.162Z,17.57
2019-02-19T16:10:46.417Z,10.93
2019-02-19T16:13:41.043Z,12.77
2019-02-19T16:16:23.606Z,12.63
2019-02-19T16:19:18.073Z,16.43
2019-02-19T16:22:00.861Z,13.23
2019-02-19T16:24:39.680Z,10.20
2019-02-19T16:27:40.517Z,9.00
2019-02-19T16:30:35.608Z,11.90
2019-02-19T16:33:17.502Z,10.87
2019-02-19T16:36:01.257Z,8.97
2019-02-19T16:38:48.952Z,11.37
2019-02-19T16:41:29.570Z,11.07
2019-02-19T16:44:36.401Z,10.37
2019-02-19T16:47:34.260Z,9.63
2019-02-19T16:50:20.803Z,14.73
2019-02-19T16:53:11.039Z,8.37
2019-02-19T16:56:08.282Z,13.97
2019-02-19T16:59:07.533Z,10.90
2019-02-19T17:01:44.708Z,7.70
2019-02-19T17:04:38.187Z,9.00
2019-02-19T17:07:30.321Z,9.37
2019-02-19T17:10:14.868Z,8.87
2019-02-19T17:13:00.080Z,10.27
2019-02-19T17:15:57.861Z,11.50
2019-02-19T17:18:41.995Z,11.70
2019-02-19T17:21:27.640Z,9.67
2019-02-19T17:24:14.027Z,10.73
2019-02-19T17:26:55.318Z,12.00
2019-02-19T17:29:34.045Z,10.10
2019-02-19T17:32:24.760Z,10.63
2019-02-19T17:35:06.378Z,8.47
2019-02-19T17:37:50.439Z,9.57
2019-02-19T17:40:52.377Z,7.27
2019-02-19T17:43:29.782Z,10.93
2019-02-19T17:46:19.494Z,11.40
2019-02-19T17:49:02.235Z,8.13
2019-02-19T17:51:44.290Z,10.03
2019-02-19T17:54:41.940Z,10.90
2019-02-19T17:57:33.875Z,8.07
2019-02-19T18:00:16.020Z,8.60
2019-02-19T18:03:03.412Z,6.77
2019-02-19T18:05:48.716Z,7.80
2019-02-19T18:08:34.693Z,9.57
2019-02-19T18:11:25.197Z,9.03
2019-02-19T18:14:29.142Z,8.33
2019-02-19T18:17:27.435Z,7.27
2019-02-19T18:19:59.938Z,7.07
2019-02-19T18:22:32.290Z,7.27
2019-02-19T18:25:04.706Z,6.23
2019-02-19T18:27:36.899Z,10.63
2019-02-19T18:30:09.295Z,8.87
2019-02-19T18:32:41.510Z,7.10
2019-02-19T18:35:13.734Z,8.83
2019-02-19T18:37:46.071Z,6.23
2019-02-19T18:40:18.595Z,6.00
2019-02-19T18:42:50.913Z,7.53
2019-02-19T18:45:23.422Z,6.63
2019-02-19T18:47:55.810Z,7.20
2019-02-19T18:50:28.269Z,6.27
2019-02-19T18:53:03.450Z,9.93
2019-02-19T18:55:35.981Z,8.67
2019-02-19T18:58:08.663Z,6.27
2019-02-19T19:00:41.006Z,10.80
2019-02-19T19:03:17.530Z,6.93
2019-02-19T19:05:50.333Z,10.77
2019-02-19T19:08:22.733Z,7.57
2019-02-19T19:10:55.332Z,6.90
2019-02-19T19:13:28.029Z,7.67
2019-02-19T19:16:00.710Z,11.03
2019-02-19T19:18:33.940Z,8.27
2019-02-19T19:21:08.208Z,8.33
2019-02-19T19:23:40.679Z,8.00
2019-02-19T19:26:13.061Z,10.63
2019-02-19T19:28:45.641Z,8.30
2019-02-19T19:31:17.972Z,4.67
2019-02-19T19:33:50.313Z,7.43
2019-02-19T19:36:22.528Z,7.10
2019-02-19T19:38:54.914Z,5.40
2019-02-19T19:41:27.183Z,7.40
2019-02-19T19:43:59.612Z,7.07
2019-02-19T19:46:31.929Z,8.83
2019-02-19T19:49:04.277Z,8.70
2019-02-19T19:51:36.564Z,6.57
2019-02-19T19:54:08.802Z,13.07
2019-02-19T19:56:40.990Z,8.30
2019-02-19T19:59:13.874Z,6.67
2019-02-19T20:01:46.421Z,8.33
2019-02-19T20:04:18.681Z,9.20
2019-02-19T20:06:51.230Z,7.80
2019-02-19T20:09:23.607Z,8.13
2019-02-19T20:11:55.834Z,8.60
2019-02-19T20:14:28.711Z,6.30
2019-02-19T20:17:00.898Z,5.40
2019-02-19T20:19:33.260Z,10.57
2019-02-19T20:22:05.834Z,4.80
2019-02-19T20:24:39.433Z,7.43
2019-02-19T20:27:13.918Z,5.40
2019-02-19T20:29:46.461Z,5.47
2019-02-19T20:32:18.670Z,6.00
2019-02-19T20:34:51.206Z,5.20
2019-02-19T20:37:23.749Z,9.57
2019-02-19T20:39:55.983Z,9.80
2019-02-19T20:42:28.180Z,5.90
2019-02-19T20:45:00.505Z,6.20
2019-02-19T20:47:33.074Z,7.20
2019-02-19T20:50:05.835Z,7.67
2019-02-19T20:52:38.221Z,6.37
2019-02-19T20:55:10.771Z,6.23
2019-02-19T20:57:43.355Z,6.80
2019-02-19T21:00:16.341Z,6.77
2019-02-19T21:02:48.613Z,7.37
2019-02-19T21:05:21.130Z,6.73
2019-02-19T21:07:53.313Z,6.43
2019-02-19T21:10:26.417Z,9.23
2019-02-19T21:12:58.603Z,7.87
2019-02-19T21:15:30.983Z,7.60
2019-02-19T21:18:03.354Z,7.70
2019-02-19T21:20:35.471Z,7.50
2019-02-19T21:23:07.760Z,10.73
2019-02-19T21:25:40.269Z,9.93
2019-02-19T21:28:12.479Z,8.23
2019-02-19T21:30:45.456Z,9.67
2019-02-19T21:33:17.680Z,8.27
2019-02-19T21:35:50.026Z,11.57
2019-02-19T21:38:22.264Z,10.67
2019-02-19T21:40:54.396Z,11.80
2019-02-19T21:43:26.494Z,8.87
2019-02-19T21:45:58.745Z,10.80
2019-02-19T21:48:30.944Z,8.23
2019-02-19T21:51:03.279Z,7.73
2019-02-19T21:53:35.725Z,11.10
2019-02-19T21:56:07.919Z,9.13
2019-02-19T21:58:40.307Z,7.40
2019-02-19T22:01:12.534Z,7.87
2019-02-19T22:03:45.006Z,8.53
2019-02-19T22:06:17.245Z,6.43
2019-02-19T22:08:49.805Z,8.27
2019-02-19T22:11:22.064Z,7.00
2019-02-19T22:13:54.692Z,7.50
2019-02-19T22:16:26.936Z,7.37
2019-02-19T22:18:59.132Z,7.70
2019-02-19T22:21:42.467Z,8.97
2019-02-19T22:24:16.587Z,7.47
2019-02-19T22:26:48.999Z,8.47
2019-02-19T22:29:21.084Z,10.13
2019-02-19T22:31:53.818Z,9.83
2019-02-19T22:34:26.065Z,6.20
2019-02-19T22:36:58.598Z,5.40
2019-02-19T22:39:30.950Z,6.33
2019-02-19T22:42:03.430Z,5.77
2019-02-19T22:44:35.677Z,7.17
2019-02-19T22:47:08.128Z,5.90
2019-02-19T22:49:40.281Z,5.97
2019-02-19T22:52:12.942Z,7.67
2019-02-19T22:54:53.594Z,11.00
2019-02-19T22:57:26.244Z,9.20
2019-02-19T22:59:58.961Z,10.90
2019-02-19T23:02:31.960Z,7.23
2019-02-19T23:05:04.992Z,6.37
2019-02-19T23:07:37.430Z,7.73
2019-02-19T23:10:09.763Z,10.03
2019-02-19T23:12:42.038Z,10.40
2019-02-19T23:15:14.258Z,7.27
2019-02-19T23:17:46.619Z,8.23
2019-02-19T23:20:20.233Z,6.93
2019-02-19T23:22:52.445Z,7.70
2019-02-19T23:25:24.659Z,8.07
2019-02-19T23:27:57.130Z,7.57
2019-02-19T23:30:29.346Z,8.73
2019-02-19T23:33:01.575Z,8.03
2019-02-19T23:35:47.311Z,10.50
2019-02-19T23:38:19.575Z,11.40
2019-02-19T23:40:51.970Z,9.20
2019-02-19T23:43:24.141Z,9.50
2019-02-19T23:45:56.454Z,9.40
2019-02-19T23:48:28.517Z,11.67
2019-02-19T23:51:00.805Z,10.87
2019-02-19T23:53:32.979Z,8.20
2019-02-19T23:56:05.331Z,10.37
2019-02-19T23:58:37.703Z,13.40
